sensor_id;sensor_type;location;lat;lon;timestamp;pressure;altitude;pressure_sealevel;temperature;humidity
70468;BME280;57934;51.532;7.684;2022-11-20T00:00:16;100044.00;;;-3.40;90.78
70468;BME280;57934;51.532;7.684;2022-11-20T00:02:42;100047.50;;;-3.41;90.66
70468;BME280;57934;51.532;7.684;2022-11-20T00:05:08;100048.78;;;-3.47;90.25
70468;BME280;57934;51.532;7.684;2022-11-20T00:07:34;100047.84;;;-3.46;90.05
70468;BME280;57934;51.532;7.684;2022-11-20T00:10:00;100049.84;;;-3.38;90.71
70468;BME280;57934;51.532;7.684;2022-11-20T00:12:27;100042.13;;;-3.38;90.81
70468;BME280;57934;51.532;7.684;2022-11-20T00:14:53;100039.22;;;-3.33;90.73
70468;BME280;57934;51.532;7.684;2022-11-20T00:17:19;100040.66;;;-3.29;90.65
70468;BME280;57934;51.532;7.684;2022-11-20T00:19:45;100035.50;;;-3.29;90.96
70468;BME280;57934;51.532;7.684;2022-11-20T00:22:11;100038.91;;;-3.29;90.64
70468;BME280;57934;51.532;7.684;2022-11-20T00:24:37;100042.84;;;-3.36;90.82
70468;BME280;57934;51.532;7.684;2022-11-20T00:27:03;100037.78;;;-3.38;90.81
70468;BME280;57934;51.532;7.684;2022-11-20T00:29:29;100044.72;;;-3.38;90.36
70468;BME280;57934;51.532;7.684;2022-11-20T00:31:55;100038.50;;;-3.36;90.62
70468;BME280;57934;51.532;7.684;2022-11-20T00:34:21;100049.53;;;-3.33;90.64
70468;BME280;57934;51.532;7.684;2022-11-20T00:36:47;100040.66;;;-3.29;90.58
70468;BME280;57934;51.532;7.684;2022-11-20T00:39:14;100044.09;;;-3.18;90.33
70468;BME280;57934;51.532;7.684;2022-11-20T00:41:40;100051.06;;;-3.07;89.70
70468;BME280;57934;51.532;7.684;2022-11-20T00:44:06;100053.34;;;-2.91;90.17
70468;BME280;57934;51.532;7.684;2022-11-20T00:46:32;100052.66;;;-2.82;89.39
70468;BME280;57934;51.532;7.684;2022-11-20T00:48:58;100044.47;;;-2.76;89.60
70468;BME280;57934;51.532;7.684;2022-11-20T00:51:26;100040.97;;;-2.64;89.60
70468;BME280;57934;51.532;7.684;2022-11-20T00:53:55;100034.41;;;-2.56;89.76
70468;BME280;57934;51.532;7.684;2022-11-20T00:56:21;100040.06;;;-2.51;90.63
70468;BME280;57934;51.532;7.684;2022-11-20T00:58:48;100042.28;;;-2.47;90.56
70468;BME280;57934;51.532;7.684;2022-11-20T01:01:25;100047.56;;;-2.37;90.86
70468;BME280;57934;51.532;7.684;2022-11-20T01:03:53;100039.97;;;-2.27;90.55
70468;BME280;57934;51.532;7.684;2022-11-20T01:06:28;100045.47;;;-2.21;91.38
70468;BME280;57934;51.532;7.684;2022-11-20T01:08:57;100046.53;;;-2.12;91.42
70468;BME280;57934;51.532;7.684;2022-11-20T01:11:32;100047.91;;;-2.08;90.92
70468;BME280;57934;51.532;7.684;2022-11-20T01:14:00;100031.97;;;-2.02;90.97
70468;BME280;57934;51.532;7.684;2022-11-20T01:16:29;100032.06;;;-1.92;90.96
70468;BME280;57934;51.532;7.684;2022-11-20T01:18:59;100040.28;;;-1.87;91.69
70468;BME280;57934;51.532;7.684;2022-11-20T01:21:28;100044.16;;;-1.81;91.83
70468;BME280;57934;51.532;7.684;2022-11-20T01:23:54;100042.72;;;-1.74;91.40
70468;BME280;57934;51.532;7.684;2022-11-20T01:26:23;100046.72;;;-1.70;91.81
70468;BME280;57934;51.532;7.684;2022-11-20T01:28:49;100028.00;;;-1.62;91.90
70468;BME280;57934;51.532;7.684;2022-11-20T01:31:21;100028.50;;;-1.57;91.59
70468;BME280;57934;51.532;7.684;2022-11-20T01:33:49;100031.19;;;-1.59;91.68
70468;BME280;57934;51.532;7.684;2022-11-20T01:36:15;100029.16;;;-1.55;91.87
70468;BME280;57934;51.532;7.684;2022-11-20T01:38:42;100036.69;;;-1.52;92.56
70468;BME280;57934;51.532;7.684;2022-11-20T01:41:10;100020.56;;;-1.45;92.30
70468;BME280;57934;51.532;7.684;2022-11-20T01:43:36;100026.19;;;-1.39;91.78
70468;BME280;57934;51.532;7.684;2022-11-20T01:51:21;100030.13;;;-1.24;92.01
70468;BME280;57934;51.532;7.684;2022-11-20T01:53:49;100026.59;;;-1.23;91.26
70468;BME280;57934;51.532;7.684;2022-11-20T01:56:17;100024.63;;;-1.31;91.38
70468;BME280;57934;51.532;7.684;2022-11-20T01:58:53;100017.56;;;-1.29;91.28
70468;BME280;57934;51.532;7.684;2022-11-20T02:01:21;100010.25;;;-1.24;91.60
70468;BME280;57934;51.532;7.684;2022-11-20T02:03:47;100008.56;;;-1.13;91.63
70468;BME280;57934;51.532;7.684;2022-11-20T02:06:23;100002.31;;;-1.11;91.10
70468;BME280;57934;51.532;7.684;2022-11-20T02:08:51;100002.97;;;-1.18;90.96
70468;BME280;57934;51.532;7.684;2022-11-20T02:11:17;100002.13;;;-1.19;90.94
70468;BME280;57934;51.532;7.684;2022-11-20T02:13:44;99997.66;;;-1.17;91.24
70468;BME280;57934;51.532;7.684;2022-11-20T02:16:13;99986.91;;;-1.12;90.90
70468;BME280;57934;51.532;7.684;2022-11-20T02:18:41;99986.66;;;-1.09;90.75
70468;BME280;57934;51.532;7.684;2022-11-20T02:21:33;99986.41;;;-1.06;90.92
70468;BME280;57934;51.532;7.684;2022-11-20T02:24:19;99977.44;;;-1.02;90.64
70468;BME280;57934;51.532;7.684;2022-11-20T02:29:28;99974.44;;;-1.07;91.20
70468;BME280;57934;51.532;7.684;2022-11-20T02:31:57;99980.75;;;-1.00;91.83
70468;BME280;57934;51.532;7.684;2022-11-20T02:34:24;99976.97;;;-0.96;91.71
70468;BME280;57934;51.532;7.684;2022-11-20T02:36:51;99983.50;;;-0.92;91.90
70468;BME280;57934;51.532;7.684;2022-11-20T02:39:19;99992.81;;;-0.89;91.65
70468;BME280;57934;51.532;7.684;2022-11-20T02:41:45;99988.19;;;-0.86;92.05
70468;BME280;57934;51.532;7.684;2022-11-20T02:44:11;99992.97;;;-0.81;91.97
70468;BME280;57934;51.532;7.684;2022-11-20T02:46:38;99993.44;;;-0.76;91.91
70468;BME280;57934;51.532;7.684;2022-11-20T02:49:05;99988.25;;;-0.76;92.28
70468;BME280;57934;51.532;7.684;2022-11-20T02:51:31;99994.94;;;-0.74;92.04
70468;BME280;57934;51.532;7.684;2022-11-20T02:53:58;99998.22;;;-0.72;92.45
70468;BME280;57934;51.532;7.684;2022-11-20T02:56:24;99998.34;;;-0.73;91.98
70468;BME280;57934;51.532;7.684;2022-11-20T02:58:51;99989.38;;;-0.69;91.45
70468;BME280;57934;51.532;7.684;2022-11-20T03:01:17;99980.28;;;-0.84;91.20
70468;BME280;57934;51.532;7.684;2022-11-20T03:03:43;99976.22;;;-0.87;90.77
70468;BME280;57934;51.532;7.684;2022-11-20T03:06:09;99977.28;;;-0.89;91.03
70468;BME280;57934;51.532;7.684;2022-11-20T03:08:35;99967.88;;;-0.90;91.22
70468;BME280;57934;51.532;7.684;2022-11-20T03:11:03;99977.84;;;-0.86;91.53
70468;BME280;57934;51.532;7.684;2022-11-20T03:13:30;99972.72;;;-0.76;91.48
70468;BME280;57934;51.532;7.684;2022-11-20T03:15:56;99964.56;;;-0.72;91.18
70468;BME280;57934;51.532;7.684;2022-11-20T03:18:22;99961.56;;;-0.67;91.10
70468;BME280;57934;51.532;7.684;2022-11-20T03:20:48;99960.75;;;-0.67;91.08
70468;BME280;57934;51.532;7.684;2022-11-20T03:23:14;99951.13;;;-0.65;91.37
70468;BME280;57934;51.532;7.684;2022-11-20T03:25:40;99965.44;;;-0.61;91.30
70468;BME280;57934;51.532;7.684;2022-11-20T03:28:07;99957.41;;;-0.58;91.47
70468;BME280;57934;51.532;7.684;2022-11-20T03:30:32;99962.75;;;-0.50;91.25
70468;BME280;57934;51.532;7.684;2022-11-20T03:32:59;99943.56;;;-0.47;91.12
70468;BME280;57934;51.532;7.684;2022-11-20T03:35:25;99946.00;;;-0.46;91.12
70468;BME280;57934;51.532;7.684;2022-11-20T03:37:52;99953.91;;;-0.47;91.37
70468;BME280;57934;51.532;7.684;2022-11-20T03:40:18;99951.19;;;-0.46;91.31
70468;BME280;57934;51.532;7.684;2022-11-20T03:42:44;99943.16;;;-0.43;91.60
70468;BME280;57934;51.532;7.684;2022-11-20T03:45:15;99940.31;;;-0.40;92.21
70468;BME280;57934;51.532;7.684;2022-11-20T03:47:41;99939.09;;;-0.36;91.95
70468;BME280;57934;51.532;7.684;2022-11-20T03:50:08;99939.78;;;-0.34;91.85
70468;BME280;57934;51.532;7.684;2022-11-20T03:52:35;99936.75;;;-0.39;92.25
70468;BME280;57934;51.532;7.684;2022-11-20T03:55:01;99938.78;;;-0.42;92.08
70468;BME280;57934;51.532;7.684;2022-11-20T03:57:27;99944.69;;;-0.31;91.99
70468;BME280;57934;51.532;7.684;2022-11-20T03:59:53;99943.47;;;-0.27;91.93
70468;BME280;57934;51.532;7.684;2022-11-20T04:02:19;99939.78;;;-0.34;92.12
70468;BME280;57934;51.532;7.684;2022-11-20T04:04:46;99938.97;;;-0.34;91.85
70468;BME280;57934;51.532;7.684;2022-11-20T04:07:12;99941.97;;;-0.29;92.16
70468;BME280;57934;51.532;7.684;2022-11-20T04:09:38;99950.81;;;-0.32;91.72
70468;BME280;57934;51.532;7.684;2022-11-20T04:12:04;99959.84;;;-0.26;92.12
70468;BME280;57934;51.532;7.684;2022-11-20T04:14:30;99955.22;;;-0.22;91.52
70468;BME280;57934;51.532;7.684;2022-11-20T04:16:56;99952.47;;;-0.31;90.90
70468;BME280;57934;51.532;7.684;2022-11-20T04:19:22;99951.97;;;-0.25;90.69
70468;BME280;57934;51.532;7.684;2022-11-20T04:21:48;99950.03;;;-0.22;91.14
70468;BME280;57934;51.532;7.684;2022-11-20T04:24:14;99950.00;;;-0.32;91.02
70468;BME280;57934;51.532;7.684;2022-11-20T04:26:40;99940.19;;;-0.38;91.15
70468;BME280;57934;51.532;7.684;2022-11-20T04:29:10;99942.78;;;-0.29;91.22
70468;BME280;57934;51.532;7.684;2022-11-20T04:31:36;99947.56;;;-0.34;91.05
70468;BME280;57934;51.532;7.684;2022-11-20T04:34:04;99941.78;;;-0.47;91.79
70468;BME280;57934;51.532;7.684;2022-11-20T04:36:30;99940.31;;;-0.40;92.27
70468;BME280;57934;51.532;7.684;2022-11-20T04:39:00;99940.59;;;-0.33;92.24
70468;BME280;57934;51.532;7.684;2022-11-20T04:41:33;99928.72;;;-0.36;92.20
70468;BME280;57934;51.532;7.684;2022-11-20T04:44:00;99925.88;;;-0.33;91.64
70468;BME280;57934;51.532;7.684;2022-11-20T04:46:34;99928.59;;;-0.34;92.02
70468;BME280;57934;51.532;7.684;2022-11-20T04:49:00;99926.69;;;-0.32;91.68
70468;BME280;57934;51.532;7.684;2022-11-20T04:51:27;99937.59;;;-0.29;92.23
70468;BME280;57934;51.532;7.684;2022-11-20T04:53:54;99924.13;;;-0.22;91.99
70468;BME280;57934;51.532;7.684;2022-11-20T04:56:20;99921.84;;;-0.16;91.72
70468;BME280;57934;51.532;7.684;2022-11-20T04:58:46;99929.31;;;-0.22;91.58
70468;BME280;57934;51.532;7.684;2022-11-20T05:01:23;99929.47;;;-0.24;91.80
70468;BME280;57934;51.532;7.684;2022-11-20T05:03:50;99934.63;;;-0.24;92.20
70468;BME280;57934;51.532;7.684;2022-11-20T05:06:19;99928.22;;;-0.20;92.60
70468;BME280;57934;51.532;7.684;2022-11-20T05:08:46;99934.22;;;-0.19;92.23
70468;BME280;57934;51.532;7.684;2022-11-20T05:11:14;99929.91;;;-0.09;92.70
70468;BME280;57934;51.532;7.684;2022-11-20T05:13:41;99932.34;;;-0.08;92.15
70468;BME280;57934;51.532;7.684;2022-11-20T05:16:10;99926.22;;;-0.07;92.41
70468;BME280;57934;51.532;7.684;2022-11-20T05:18:37;99933.16;;;-0.07;92.53
70468;BME280;57934;51.532;7.684;2022-11-20T05:21:05;99934.13;;;-0.08;92.61
70468;BME280;57934;51.532;7.684;2022-11-20T05:23:32;99932.59;;;-0.11;92.76
70468;BME280;57934;51.532;7.684;2022-11-20T05:25:59;99929.91;;;-0.09;93.07
70468;BME280;57934;51.532;7.684;2022-11-20T05:28:26;99926.06;;;-0.15;93.19
70468;BME280;57934;51.532;7.684;2022-11-20T05:30:53;99924.13;;;-0.22;93.59
70468;BME280;57934;51.532;7.684;2022-11-20T05:33:19;99922.50;;;-0.23;93.58
70468;BME280;57934;51.532;7.684;2022-11-20T05:35:45;99925.34;;;-0.27;93.98
70468;BME280;57934;51.532;7.684;2022-11-20T05:38:11;99924.38;;;-0.26;93.51
70468;BME280;57934;51.532;7.684;2022-11-20T05:40:37;99929.97;;;-0.30;93.75
70468;BME280;57934;51.532;7.684;2022-11-20T05:43:03;99930.94;;;-0.31;93.92
70468;BME280;57934;51.532;7.684;2022-11-20T05:45:29;99925.63;;;-0.30;94.56
70468;BME280;57934;51.532;7.684;2022-11-20T05:47:59;99932.81;;;-0.33;94.02
70468;BME280;57934;51.532;7.684;2022-11-20T05:50:29;99923.25;;;-0.42;94.29
70468;BME280;57934;51.532;7.684;2022-11-20T05:52:58;99921.06;;;-0.47;94.82
70468;BME280;57934;51.532;7.684;2022-11-20T05:55:24;99917.09;;;-0.51;94.66
70468;BME280;57934;51.532;7.684;2022-11-20T05:57:50;99919.94;;;-0.54;94.80
70468;BME280;57934;51.532;7.684;2022-11-20T06:00:16;99915.97;;;-0.58;94.98
70468;BME280;57934;51.532;7.684;2022-11-20T06:02:42;99913.41;;;-0.58;95.63
70468;BME280;57934;51.532;7.684;2022-11-20T06:05:08;99918.69;;;-0.60;95.32
70468;BME280;57934;51.532;7.684;2022-11-20T06:07:34;99913.66;;;-0.61;96.18
70468;BME280;57934;51.532;7.684;2022-11-20T06:10:00;99920.84;;;-0.65;96.16
70468;BME280;57934;51.532;7.684;2022-11-20T06:12:26;99921.81;;;-0.66;96.19
70468;BME280;57934;51.532;7.684;2022-11-20T06:14:52;99922.38;;;-0.62;96.44
70468;BME280;57934;51.532;7.684;2022-11-20T06:17:18;99918.28;;;-0.65;96.24
70468;BME280;57934;51.532;7.684;2022-11-20T06:19:44;99923.16;;;-0.72;95.92
70468;BME280;57934;51.532;7.684;2022-11-20T06:22:10;99913.88;;;-0.74;96.30
70468;BME280;57934;51.532;7.684;2022-11-20T06:24:36;99916.03;;;-0.79;96.15
70468;BME280;57934;51.532;7.684;2022-11-20T06:27:02;99913.59;;;-0.81;96.69
70468;BME280;57934;51.532;7.684;2022-11-20T06:29:28;99920.75;;;-0.84;95.87
70468;BME280;57934;51.532;7.684;2022-11-20T06:31:54;99916.44;;;-0.84;96.95
70468;BME280;57934;51.532;7.684;2022-11-20T06:34:20;99911.81;;;-0.80;96.70
70468;BME280;57934;51.532;7.684;2022-11-20T06:36:47;99915.72;;;-0.86;96.36
70468;BME280;57934;51.532;7.684;2022-11-20T06:39:13;99919.78;;;-0.93;96.34
70468;BME280;57934;51.532;7.684;2022-11-20T06:41:39;99923.81;;;-1.00;96.47
70468;BME280;57934;51.532;7.684;2022-11-20T06:44:05;99930.06;;;-1.03;96.46
70468;BME280;57934;51.532;7.684;2022-11-20T06:46:31;99924.59;;;-1.09;96.21
70468;BME280;57934;51.532;7.684;2022-11-20T06:48:57;99929.09;;;-1.11;96.37
70468;BME280;57934;51.532;7.684;2022-11-20T06:51:24;99933.53;;;-1.13;97.30
70468;BME280;57934;51.532;7.684;2022-11-20T06:53:50;99936.28;;;-1.15;96.78
70468;BME280;57934;51.532;7.684;2022-11-20T06:56:16;99941.19;;;-1.12;96.54
70468;BME280;57934;51.532;7.684;2022-11-20T06:58:42;99941.19;;;-1.12;96.77
70468;BME280;57934;51.532;7.684;2022-11-20T07:01:13;99943.78;;;-1.12;97.32
70468;BME280;57934;51.532;7.684;2022-11-20T07:03:40;99945.53;;;-1.12;96.59
70468;BME280;57934;51.532;7.684;2022-11-20T07:06:06;99941.56;;;-1.16;96.42
70468;BME280;57934;51.532;7.684;2022-11-20T07:08:33;99939.94;;;-1.17;96.94
70468;BME280;57934;51.532;7.684;2022-11-20T07:11:01;99937.59;;;-1.21;96.91
70468;BME280;57934;51.532;7.684;2022-11-20T07:13:28;99935.81;;;-1.20;96.42
70468;BME280;57934;51.532;7.684;2022-11-20T07:15:54;99941.44;;;-1.15;96.63
70468;BME280;57934;51.532;7.684;2022-11-20T07:18:21;99945.28;;;-1.09;96.37
70468;BME280;57934;51.532;7.684;2022-11-20T07:20:46;99951.78;;;-1.15;96.43
70468;BME280;57934;51.532;7.684;2022-11-20T07:23:13;99950.97;;;-1.15;96.17
70468;BME280;57934;51.532;7.684;2022-11-20T07:25:39;99954.88;;;-1.21;96.34
70468;BME280;57934;51.532;7.684;2022-11-20T07:28:05;99955.81;;;-1.22;96.14
70468;BME280;57934;51.532;7.684;2022-11-20T07:30:31;99953.34;;;-1.24;95.65
70468;BME280;57934;51.532;7.684;2022-11-20T07:32:57;99956.75;;;-1.23;95.98
70468;BME280;57934;51.532;7.684;2022-11-20T07:35:24;99955.81;;;-1.22;95.68
70468;BME280;57934;51.532;7.684;2022-11-20T07:37:50;99959.91;;;-1.20;96.00
70468;BME280;57934;51.532;7.684;2022-11-20T07:40:17;99958.84;;;-1.17;96.23
70468;BME280;57934;51.532;7.684;2022-11-20T07:42:50;99973.06;;;-0.90;96.15
70468;BME280;57934;51.532;7.684;2022-11-20T07:45:18;99962.69;;;-0.60;95.83
70468;BME280;57934;51.532;7.684;2022-11-20T07:47:44;99958.69;;;-0.43;94.65
70468;BME280;57934;51.532;7.684;2022-11-20T07:50:11;99946.53;;;-0.02;93.77
70468;BME280;57934;51.532;7.684;2022-11-20T07:52:37;99952.56;;;0.66;91.71
70468;BME280;57934;51.532;7.684;2022-11-20T07:55:03;99957.75;;;1.42;89.00
70468;BME280;57934;51.532;7.684;2022-11-20T07:57:29;99948.44;;;2.05;85.03
70468;BME280;57934;51.532;7.684;2022-11-20T07:59:56;99955.50;;;2.66;82.06
70468;BME280;57934;51.532;7.684;2022-11-20T08:02:22;99954.69;;;3.09;78.99
70468;BME280;57934;51.532;7.684;2022-11-20T08:04:48;99964.50;;;2.72;77.63
70468;BME280;57934;51.532;7.684;2022-11-20T08:07:14;99960.53;;;2.85;79.09
70468;BME280;57934;51.532;7.684;2022-11-20T08:09:40;99952.13;;;3.18;77.26
70468;BME280;57934;51.532;7.684;2022-11-20T08:12:06;99957.75;;;3.31;76.66
70468;BME280;57934;51.532;7.684;2022-11-20T08:14:51;99957.16;;;3.45;75.52
70468;BME280;57934;51.532;7.684;2022-11-20T08:17:17;99957.88;;;4.06;74.42
70468;BME280;57934;51.532;7.684;2022-11-20T08:19:43;99957.16;;;4.95;72.12
70468;BME280;57934;51.532;7.684;2022-11-20T08:22:09;99951.22;;;5.73;69.61
70468;BME280;57934;51.532;7.684;2022-11-20T08:24:35;99945.03;;;6.37;65.60
70468;BME280;57934;51.532;7.684;2022-11-20T08:27:01;99941.44;;;6.99;63.83
70468;BME280;57934;51.532;7.684;2022-11-20T08:29:27;99941.78;;;7.40;61.16
70468;BME280;57934;51.532;7.684;2022-11-20T08:31:53;99939.53;;;7.67;61.12
70468;BME280;57934;51.532;7.684;2022-11-20T08:34:19;99943.53;;;7.99;59.81
70468;BME280;57934;51.532;7.684;2022-11-20T08:36:45;99939.13;;;8.21;57.55
70468;BME280;57934;51.532;7.684;2022-11-20T08:39:12;99931.38;;;8.34;56.45
70468;BME280;57934;51.532;7.684;2022-11-20T08:41:38;99934.22;;;8.75;56.76
70468;BME280;57934;51.532;7.684;2022-11-20T08:44:06;99940.56;;;9.16;56.04
70468;BME280;57934;51.532;7.684;2022-11-20T08:46:35;99941.09;;;9.32;54.35
70468;BME280;57934;51.532;7.684;2022-11-20T08:49:05;99934.34;;;9.58;53.84
70468;BME280;57934;51.532;7.684;2022-11-20T08:51:32;99934.06;;;9.88;52.15
70468;BME280;57934;51.532;7.684;2022-11-20T08:53:58;99933.31;;;10.00;51.80
70468;BME280;57934;51.532;7.684;2022-11-20T08:56:24;99931.34;;;10.22;51.09
70468;BME280;57934;51.532;7.684;2022-11-20T08:58:51;99931.41;;;10.36;51.24
70468;BME280;57934;51.532;7.684;2022-11-20T09:01:20;99934.16;;;10.21;50.76
70468;BME280;57934;51.532;7.684;2022-11-20T09:03:47;99933.97;;;10.22;51.34
70468;BME280;57934;51.532;7.684;2022-11-20T09:06:13;99931.41;;;10.36;50.06
70468;BME280;57934;51.532;7.684;2022-11-20T09:08:40;99933.09;;;10.02;50.74
70468;BME280;57934;51.532;7.684;2022-11-20T09:11:07;99933.72;;;10.04;50.96
70468;BME280;57934;51.532;7.684;2022-11-20T09:13:34;99933.22;;;10.55;49.84
70468;BME280;57934;51.532;7.684;2022-11-20T09:16:03;99941.53;;;10.98;49.77
70468;BME280;57934;51.532;7.684;2022-11-20T09:18:30;99933.41;;;11.20;48.62
70468;BME280;57934;51.532;7.684;2022-11-20T09:21:04;99928.75;;;11.09;48.24
70468;BME280;57934;51.532;7.684;2022-11-20T09:23:32;99930.78;;;10.67;48.51
70468;BME280;57934;51.532;7.684;2022-11-20T09:26:18;99929.41;;;9.90;50.28
70468;BME280;57934;51.532;7.684;2022-11-20T09:28:45;99929.16;;;9.02;51.78
70468;BME280;57934;51.532;7.684;2022-11-20T09:31:22;99926.13;;;7.76;54.47
70468;BME280;57934;51.532;7.684;2022-11-20T09:33:48;99929.84;;;6.93;57.16
70468;BME280;57934;51.532;7.684;2022-11-20T09:36:14;99930.13;;;6.37;59.04
70468;BME280;57934;51.532;7.684;2022-11-20T09:38:41;99927.38;;;5.68;61.79
70468;BME280;57934;51.532;7.684;2022-11-20T09:47:01;99923.84;;;5.06;64.48
70468;BME280;57934;51.532;7.684;2022-11-20T09:54:39;99915.22;;;4.40;66.91
70468;BME280;57934;51.532;7.684;2022-11-20T09:57:19;99914.69;;;4.20;67.82
70468;BME280;57934;51.532;7.684;2022-11-20T10:00:08;99914.53;;;4.05;67.93
70468;BME280;57934;51.532;7.684;2022-11-20T10:02:52;99908.78;;;3.93;68.67
70468;BME280;57934;51.532;7.684;2022-11-20T10:05:22;99905.31;;;3.76;69.48
70468;BME280;57934;51.532;7.684;2022-11-20T10:10:34;99913.94;;;3.69;70.46
70468;BME280;57934;51.532;7.684;2022-11-20T10:13:20;99909.34;;;3.63;70.69
70468;BME280;57934;51.532;7.684;2022-11-20T10:21:41;99889.50;;;3.78;70.93
70468;BME280;57934;51.532;7.684;2022-11-20T10:26:53;99880.59;;;4.05;70.34
70468;BME280;57934;51.532;7.684;2022-11-20T10:29:32;99881.56;;;3.96;69.67
70468;BME280;57934;51.532;7.684;2022-11-20T10:32:03;99882.81;;;3.75;69.68
70468;BME280;57934;51.532;7.684;2022-11-20T10:34:48;99883.59;;;3.59;70.75
70468;BME280;57934;51.532;7.684;2022-11-20T10:37:22;99885.56;;;3.66;71.17
70468;BME280;57934;51.532;7.684;2022-11-20T10:39:59;99884.97;;;3.80;71.10
70468;BME280;57934;51.532;7.684;2022-11-20T10:42:44;99881.06;;;3.92;70.24
70468;BME280;57934;51.532;7.684;2022-11-20T10:48:19;99880.13;;;4.10;69.94
70468;BME280;57934;51.532;7.684;2022-11-20T10:56:35;99884.88;;;4.14;70.07
70468;BME280;57934;51.532;7.684;2022-11-20T11:01:41;99863.59;;;4.91;66.34
70468;BME280;57934;51.532;7.684;2022-11-20T11:04:36;99867.00;;;4.91;65.92
70468;BME280;57934;51.532;7.684;2022-11-20T11:07:10;99858.31;;;5.07;66.29
70468;BME280;57934;51.532;7.684;2022-11-20T11:09:43;99861.78;;;6.32;63.04
70468;BME280;57934;51.532;7.684;2022-11-20T11:12:10;99852.81;;;7.75;58.37
70468;BME280;57934;51.532;7.684;2022-11-20T11:14:56;99853.28;;;8.21;55.50
70468;BME280;57934;51.532;7.684;2022-11-20T11:22:34;99852.31;;;6.00;62.56
70468;BME280;57934;51.532;7.684;2022-11-20T11:27:53;99851.09;;;6.86;59.49
70468;BME280;57934;51.532;7.684;2022-11-20T11:30:24;99837.66;;;6.75;59.73
70468;BME280;57934;51.532;7.684;2022-11-20T11:33:03;99838.38;;;6.31;61.69
70468;BME280;57934;51.532;7.684;2022-11-20T11:35:30;99829.41;;;5.79;62.58
70468;BME280;57934;51.532;7.684;2022-11-20T11:38:05;99829.97;;;5.35;63.74
70468;BME280;57934;51.532;7.684;2022-11-20T11:40:35;99831.47;;;4.82;65.62
70468;BME280;57934;51.532;7.684;2022-11-20T11:43:05;99831.69;;;4.23;66.59
70468;BME280;57934;51.532;7.684;2022-11-20T11:45:53;99827.28;;;3.91;69.15
70468;BME280;57934;51.532;7.684;2022-11-20T11:48:20;99829.03;;;3.74;69.92
70468;BME280;57934;51.532;7.684;2022-11-20T11:50:50;99830.50;;;3.69;71.13
70468;BME280;57934;51.532;7.684;2022-11-20T11:53:19;99822.03;;;3.75;70.88
70468;BME280;57934;51.532;7.684;2022-11-20T11:55:56;99824.00;;;3.81;70.39
70468;BME280;57934;51.532;7.684;2022-11-20T11:58:46;99821.06;;;3.92;70.19
70468;BME280;57934;51.532;7.684;2022-11-20T12:01:27;99817.00;;;3.98;69.72
70468;BME280;57934;51.532;7.684;2022-11-20T12:04:02;99811.31;;;4.02;70.21
70468;BME280;57934;51.532;7.684;2022-11-20T12:06:30;99816.19;;;4.05;69.36
70468;BME280;57934;51.532;7.684;2022-11-20T12:09:06;99810.97;;;4.14;69.65
70468;BME280;57934;51.532;7.684;2022-11-20T12:14:20;99801.69;;;4.11;68.47
70468;BME280;57934;51.532;7.684;2022-11-20T12:16:50;99795.97;;;4.16;68.51
70468;BME280;57934;51.532;7.684;2022-11-20T12:19:18;99793.19;;;4.17;68.79
70468;BME280;57934;51.532;7.684;2022-11-20T12:25:13;99791.59;;;4.08;68.67
70468;BME280;57934;51.532;7.684;2022-11-20T12:30:23;99783.59;;;4.26;67.97
70468;BME280;57934;51.532;7.684;2022-11-20T12:44:18;99743.56;;;4.58;67.36
70468;BME280;57934;51.532;7.684;2022-11-20T12:47:15;99745.06;;;4.44;67.62
70468;BME280;57934;51.532;7.684;2022-11-20T12:56:33;99741.47;;;4.37;67.42
70468;BME280;57934;51.532;7.684;2022-11-20T13:02:23;99735.28;;;4.46;67.38
70468;BME280;57934;51.532;7.684;2022-11-20T13:05:20;99733.47;;;4.39;67.88
70468;BME280;57934;51.532;7.684;2022-11-20T13:07:48;99722.56;;;4.35;67.84
70468;BME280;57934;51.532;7.684;2022-11-20T13:10:34;99719.94;;;4.35;68.16
70468;BME280;57934;51.532;7.684;2022-11-20T13:13:22;99718.53;;;4.16;68.25
70468;BME280;57934;51.532;7.684;2022-11-20T13:15:57;99714.78;;;4.11;68.65
70468;BME280;57934;51.532;7.684;2022-11-20T13:18:26;99698.81;;;3.89;69.45
70468;BME280;57934;51.532;7.684;2022-11-20T13:20:52;99708.63;;;3.87;69.98
70468;BME280;57934;51.532;7.684;2022-11-20T13:23:27;99702.44;;;3.64;70.65
70468;BME280;57934;51.532;7.684;2022-11-20T13:26:15;99695.75;;;3.53;71.65
70468;BME280;57934;51.532;7.684;2022-11-20T13:28:41;99696.06;;;3.42;71.51
70468;BME280;57934;51.532;7.684;2022-11-20T13:31:30;99688.41;;;3.32;71.86
70468;BME280;57934;51.532;7.684;2022-11-20T13:33:57;99683.19;;;3.24;72.20
70468;BME280;57934;51.532;7.684;2022-11-20T13:36:27;99679.91;;;3.14;73.01
70468;BME280;57934;51.532;7.684;2022-11-20T13:39:00;99673.03;;;2.96;74.87
70468;BME280;57934;51.532;7.684;2022-11-20T13:41:33;99675.69;;;2.62;76.89
70468;BME280;57934;51.532;7.684;2022-11-20T13:46:46;99660.25;;;2.26;80.46
70468;BME280;57934;51.532;7.684;2022-11-20T13:49:39;99654.00;;;2.11;83.04
70468;BME280;57934;51.532;7.684;2022-11-20T13:52:39;99649.56;;;2.03;84.01
70468;BME280;57934;51.532;7.684;2022-11-20T13:58:04;99648.44;;;2.06;85.34
70468;BME280;57934;51.532;7.684;2022-11-20T14:00:31;99635.44;;;2.06;85.91
70468;BME280;57934;51.532;7.684;2022-11-20T14:03:02;99642.59;;;2.04;85.90
70468;BME280;57934;51.532;7.684;2022-11-20T14:05:36;99634.72;;;1.96;86.88
70468;BME280;57934;51.532;7.684;2022-11-20T14:08:04;99629.84;;;1.92;87.20
70468;BME280;57934;51.532;7.684;2022-11-20T14:10:31;99631.63;;;1.92;87.35
70468;BME280;57934;51.532;7.684;2022-11-20T14:12:58;99629.03;;;1.92;87.35
70468;BME280;57934;51.532;7.684;2022-11-20T14:15:35;99621.69;;;1.87;87.63
70468;BME280;57934;51.532;7.684;2022-11-20T14:18:19;99622.53;;;1.96;87.62
70468;BME280;57934;51.532;7.684;2022-11-20T14:20:46;99608.91;;;1.94;87.64
70468;BME280;57934;51.532;7.684;2022-11-20T14:23:23;99609.53;;;1.96;87.82
70468;BME280;57934;51.532;7.684;2022-11-20T14:25:50;99603.69;;;1.94;87.78
70468;BME280;57934;51.532;7.684;2022-11-20T14:28:28;99605.34;;;2.03;88.00
70468;BME280;57934;51.532;7.684;2022-11-20T14:30:54;99604.72;;;2.01;87.49
70468;BME280;57934;51.532;7.684;2022-11-20T14:33:23;99594.16;;;2.03;87.44
70468;BME280;57934;51.532;7.684;2022-11-20T14:35:53;99593.84;;;2.06;88.28
70468;BME280;57934;51.532;7.684;2022-11-20T14:38:31;99590.25;;;2.07;87.87